createdAt,value
2018-09-24T00:00:40.607Z,100.00
2018-09-24T00:03:10.363Z,100.00
2018-09-24T00:05:40.175Z,100.00
2018-09-24T00:08:09.924Z,100.00
2018-09-24T00:10:39.724Z,100.00
2018-09-24T00:13:09.493Z,100.00
2018-09-24T00:15:39.253Z,99.83
2018-09-24T00:18:09.043Z,99.69
2018-09-24T00:20:38.790Z,99.25
2018-09-24T00:23:08.570Z,99.42
2018-09-24T00:25:38.380Z,98.78
2018-09-24T00:28:08.143Z,98.81
2018-09-24T00:30:37.918Z,98.35
2018-09-24T00:33:07.718Z,98.24
2018-09-24T00:35:37.607Z,97.46
2018-09-24T00:38:07.378Z,97.24
2018-09-24T00:40:37.147Z,97.39
2018-09-24T00:43:06.945Z,97.00
2018-09-24T00:45:36.815Z,96.65
2018-09-24T00:48:06.670Z,96.32
2018-09-24T00:50:36.519Z,95.65
2018-09-24T00:53:06.577Z,95.99
2018-09-24T00:55:36.091Z,95.43
2018-09-24T00:58:06.356Z,95.03
2018-09-24T01:00:36.218Z,94.86
2018-09-24T01:03:06.013Z,94.79
2018-09-24T01:05:35.830Z,94.72
2018-09-24T01:08:05.681Z,94.96
2018-09-24T01:10:35.494Z,94.97
2018-09-24T01:13:05.254Z,94.29
2018-09-24T01:15:35.052Z,93.84
2018-09-24T01:18:05.340Z,93.88
2018-09-24T01:20:35.156Z,93.77
2018-09-24T01:23:04.904Z,93.46
2018-09-24T01:25:34.730Z,93.47
2018-09-24T01:28:04.469Z,93.66
2018-09-24T01:30:34.272Z,93.89
2018-09-24T01:33:04.018Z,93.12
2018-09-24T01:35:33.866Z,92.84
2018-09-24T01:38:03.651Z,92.60
2018-09-24T01:40:34.014Z,92.53
2018-09-24T01:43:03.754Z,92.40
2018-09-24T01:45:33.597Z,92.51
2018-09-24T01:48:03.319Z,92.14
2018-09-24T01:50:33.114Z,92.47
2018-09-24T01:53:03.764Z,91.64
2018-09-24T01:55:33.162Z,91.88
2018-09-24T01:58:03.073Z,90.74
2018-09-24T02:00:32.850Z,90.87
2018-09-24T02:03:02.593Z,90.53
2018-09-24T02:05:32.488Z,90.46
2018-09-24T02:08:02.323Z,90.05
2018-09-24T02:10:32.057Z,89.88
2018-09-24T02:13:01.815Z,89.81
2018-09-24T02:15:32.901Z,88.68
2018-09-24T02:18:02.783Z,88.98
2018-09-24T02:20:32.598Z,88.40
2018-09-24T02:23:02.393Z,88.18
2018-09-24T02:25:32.597Z,88.24
2018-09-24T02:28:02.413Z,88.03
2018-09-24T02:30:32.218Z,87.81
2018-09-24T02:33:03.145Z,87.54
2018-09-24T02:35:32.952Z,87.00
2018-09-24T02:38:02.661Z,87.24
2018-09-24T02:40:32.457Z,87.02
2018-09-24T02:43:02.254Z,87.83
2018-09-24T02:45:31.609Z,87.67
2018-09-24T02:48:01.357Z,87.05
2018-09-24T02:50:39.052Z,86.11
2018-09-24T02:53:10.172Z,85.84
2018-09-24T02:55:39.973Z,86.35
2018-09-24T02:58:16.117Z,85.48
2018-09-24T03:00:46.215Z,84.98
2018-09-24T03:03:15.985Z,84.52
2018-09-24T03:05:45.853Z,85.51
2018-09-24T03:08:15.609Z,83.73
2018-09-24T03:10:45.349Z,83.75
2018-09-24T03:13:15.140Z,83.43
2018-09-24T03:15:44.873Z,84.49
2018-09-24T03:18:14.595Z,84.60
2018-09-24T03:20:45.613Z,84.29
2018-09-24T03:23:15.324Z,83.84
2018-09-24T03:25:45.085Z,82.83
2018-09-24T03:28:14.783Z,83.23
2018-09-24T03:30:44.623Z,83.85
2018-09-24T03:33:14.385Z,83.97
2018-09-24T03:35:44.099Z,83.75
2018-09-24T03:38:13.820Z,83.58
2018-09-24T03:40:43.589Z,82.45
2018-09-24T03:43:13.429Z,82.14
2018-09-24T03:45:43.215Z,82.90
2018-09-24T03:48:13.021Z,82.50
2018-09-24T03:50:42.808Z,82.20
2018-09-24T03:53:12.677Z,81.92
2018-09-24T03:55:42.419Z,81.73
2018-09-24T03:58:12.155Z,82.23
2018-09-24T04:00:41.953Z,82.27
2018-09-24T04:03:11.676Z,82.11
2018-09-24T04:05:46.571Z,82.28
2018-09-24T04:11:16.733Z,83.17
2018-09-24T04:13:52.448Z,83.82
2018-09-24T04:16:36.402Z,84.36
2018-09-24T04:19:11.678Z,83.52
2018-09-24T04:21:52.462Z,84.07
2018-09-24T04:24:27.987Z,84.07
2018-09-24T04:27:03.964Z,84.25
2018-09-24T04:29:39.577Z,84.74
2018-09-24T04:32:15.220Z,85.30
2018-09-24T04:34:50.866Z,85.94
2018-09-24T04:37:26.313Z,86.59
2018-09-24T04:40:01.676Z,87.25
2018-09-24T04:42:43.489Z,87.36
2018-09-24T04:45:18.844Z,87.80
2018-09-24T04:47:54.221Z,88.41
2018-09-24T04:50:30.323Z,88.40
2018-09-24T04:53:06.220Z,89.02
2018-09-24T04:55:42.007Z,89.69
2018-09-24T04:58:18.072Z,89.66
2018-09-24T05:01:00.196Z,89.60
2018-09-24T05:03:35.688Z,89.68
2018-09-24T05:06:12.091Z,89.72
2018-09-24T05:08:47.976Z,89.46
2018-09-24T05:11:23.498Z,90.30
2018-09-24T05:13:59.252Z,90.50
2018-09-24T05:16:35.243Z,90.28
2018-09-24T05:19:11.097Z,90.31
2018-09-24T05:21:47.196Z,90.13
2018-09-24T05:24:22.844Z,90.66
2018-09-24T05:26:58.580Z,90.76
2018-09-24T05:29:34.616Z,90.56
2018-09-24T05:32:09.988Z,90.12
2018-09-24T05:34:45.609Z,89.53
2018-09-24T05:37:23.729Z,89.41
2018-09-24T05:39:59.019Z,89.67
2018-09-24T05:42:35.565Z,89.22
2018-09-24T05:45:12.302Z,89.30
2018-09-24T05:47:47.910Z,88.64
2018-09-24T05:50:24.304Z,88.15
2018-09-24T05:52:59.738Z,88.16
2018-09-24T05:55:35.367Z,87.24
2018-09-24T05:58:10.774Z,87.16
2018-09-24T06:00:46.233Z,86.76
2018-09-24T06:03:21.578Z,86.44
2018-09-24T06:05:57.419Z,86.99
2018-09-24T06:08:32.264Z,86.31
2018-09-24T06:11:07.579Z,85.87
2018-09-24T06:13:43.061Z,85.91
2018-09-24T06:16:18.315Z,84.63
2018-09-24T06:18:54.143Z,84.71
2018-09-24T06:21:29.784Z,85.15
2018-09-24T06:24:06.580Z,83.70
2018-09-24T06:26:42.196Z,83.17
2018-09-24T06:29:17.651Z,82.27
2018-09-24T06:31:52.980Z,81.27
2018-09-24T06:34:27.954Z,80.66
2018-09-24T06:37:03.266Z,79.70
2018-09-24T06:39:39.271Z,79.35
2018-09-24T06:42:15.036Z,78.80
2018-09-24T06:44:50.860Z,79.01
2018-09-24T06:47:26.764Z,78.58
2018-09-24T06:50:02.366Z,78.50
2018-09-24T06:52:37.730Z,77.25
2018-09-24T06:55:14.098Z,76.80
2018-09-24T06:57:49.767Z,77.16
2018-09-24T07:00:24.812Z,75.77
2018-09-24T07:03:00.324Z,76.67
2018-09-24T07:05:35.374Z,76.98
2018-09-24T07:08:10.842Z,76.24
2018-09-24T07:10:47.927Z,76.24
2018-09-24T07:13:24.080Z,76.11
2018-09-24T07:15:59.175Z,76.51
2018-09-24T07:18:34.771Z,75.17
2018-09-24T07:21:10.335Z,74.12
2018-09-24T07:23:46.008Z,74.37
2018-09-24T07:26:21.503Z,74.59
2018-09-24T07:28:57.490Z,73.77
2018-09-24T07:31:33.030Z,73.85
2018-09-24T07:34:08.662Z,74.19
2018-09-24T07:36:44.856Z,73.00
2018-09-24T07:39:20.275Z,72.35
2018-09-24T07:41:56.590Z,72.97
2018-09-24T07:44:32.451Z,72.59
2018-09-24T07:47:07.499Z,71.67
2018-09-24T07:49:43.168Z,70.46
2018-09-24T07:52:18.595Z,71.33
2018-09-24T07:54:53.712Z,71.10
2018-09-24T07:57:29.459Z,69.91
2018-09-24T08:00:05.412Z,68.43
2018-09-24T08:02:40.351Z,66.85
2018-09-24T08:05:15.202Z,65.60
2018-09-24T08:07:50.119Z,67.08
2018-09-24T08:10:24.863Z,67.28
2018-09-24T08:12:59.920Z,66.69
2018-09-24T08:15:34.718Z,64.79
2018-09-24T08:18:09.544Z,64.71
2018-09-24T08:20:44.383Z,62.63
2018-09-24T08:23:19.431Z,61.78
2018-09-24T08:25:54.383Z,61.51
2018-09-24T08:28:29.108Z,61.90
2018-09-24T08:31:03.845Z,61.24
2018-09-24T08:33:38.590Z,61.28
2018-09-24T08:36:13.496Z,60.83
2018-09-24T08:38:48.289Z,60.67
2018-09-24T08:41:23.087Z,60.40
2018-09-24T08:43:57.923Z,60.17
2018-09-24T08:46:32.806Z,60.73
2018-09-24T08:49:07.250Z,60.88
2018-09-24T08:51:42.047Z,59.29
2018-09-24T08:54:16.794Z,58.19
2018-09-24T08:56:51.809Z,59.32
2018-09-24T08:59:26.662Z,59.35
2018-09-24T09:02:01.438Z,59.48
2018-09-24T09:04:36.245Z,57.81
2018-09-24T09:07:11.121Z,57.19
2018-09-24T09:09:46.149Z,56.33
2018-09-24T09:12:21.042Z,56.62
2018-09-24T09:14:55.888Z,57.41
2018-09-24T09:17:30.739Z,57.96
2018-09-24T09:20:05.546Z,58.42
2018-09-24T09:22:40.362Z,57.00
2018-09-24T09:25:15.346Z,57.04
2018-09-24T09:27:50.094Z,55.37
2018-09-24T09:30:25.060Z,57.06
2018-09-24T09:32:59.886Z,56.77
2018-09-24T09:35:34.887Z,54.36
2018-09-24T09:38:09.695Z,52.88
2018-09-24T09:40:44.718Z,52.78
2018-09-24T09:43:19.498Z,51.67
2018-09-24T09:45:54.417Z,53.08
2018-09-24T09:48:29.189Z,52.62
2018-09-24T09:51:04.182Z,52.78
2018-09-24T09:53:39.084Z,52.05
2018-09-24T09:56:13.974Z,49.98
2018-09-24T09:58:48.738Z,50.51
2018-09-24T10:01:23.594Z,50.11
2018-09-24T10:03:58.396Z,49.84
2018-09-24T10:06:33.208Z,49.17
2018-09-24T10:09:08.114Z,47.26
2018-09-24T10:11:43.057Z,46.94
2018-09-24T10:14:17.860Z,46.92
2018-09-24T10:16:52.793Z,46.67
2018-09-24T10:19:27.622Z,46.21
2018-09-24T10:22:02.565Z,48.42
2018-09-24T10:24:37.380Z,47.84
2018-09-24T10:27:12.187Z,46.92
2018-09-24T10:29:47.205Z,46.51
2018-09-24T10:32:22.052Z,46.48
2018-09-24T10:34:56.679Z,45.41
2018-09-24T10:37:31.163Z,43.72
2018-09-24T10:40:05.986Z,44.21
2018-09-24T10:42:40.907Z,44.63
2018-09-24T10:45:15.680Z,45.61
2018-09-24T10:47:50.657Z,45.44
2018-09-24T10:50:25.522Z,45.95
2018-09-24T10:53:00.258Z,44.87
2018-09-24T10:55:35.147Z,44.63
2018-09-24T10:58:10.111Z,44.50
2018-09-24T11:00:45.035Z,44.80
2018-09-24T11:03:20.056Z,45.43
2018-09-24T11:05:55.035Z,44.86
2018-09-24T11:08:29.853Z,43.76
2018-09-24T11:11:04.745Z,44.20
2018-09-24T11:13:39.652Z,44.63
2018-09-24T11:16:14.395Z,44.91
2018-09-24T11:18:49.222Z,43.93
2018-09-24T11:21:24.007Z,43.38
2018-09-24T11:23:59.033Z,44.59
2018-09-24T11:26:33.823Z,44.84
2018-09-24T11:29:08.645Z,44.54
2018-09-24T11:31:43.530Z,46.19
2018-09-24T11:34:18.263Z,45.17
2018-09-24T11:36:53.097Z,44.88
2018-09-24T11:39:28.019Z,43.43
2018-09-24T11:42:02.953Z,43.54
2018-09-24T11:44:37.759Z,43.36
2018-09-24T11:47:12.923Z,43.74
2018-09-24T11:49:47.792Z,44.24
2018-09-24T11:52:22.777Z,44.62
2018-09-24T11:54:57.619Z,45.19
2018-09-24T11:57:32.668Z,44.72
2018-09-24T12:00:07.593Z,46.09
2018-09-24T12:02:42.372Z,45.36
2018-09-24T12:05:17.157Z,45.86
2018-09-24T12:07:52.144Z,45.60
2018-09-24T12:10:27.129Z,44.46
2018-09-24T12:13:02.146Z,42.98
2018-09-24T12:15:37.090Z,41.94
2018-09-24T12:18:12.150Z,41.57
2018-09-24T12:20:47.119Z,41.98
2018-09-24T12:23:22.026Z,41.35
2018-09-24T12:25:56.909Z,47.17
2018-09-24T12:28:31.734Z,51.11
2018-09-24T12:31:06.569Z,52.78
2018-09-24T12:33:41.343Z,51.84
2018-09-24T12:36:16.317Z,51.15
2018-09-24T12:38:51.095Z,47.80
2018-09-24T12:41:25.847Z,48.17
2018-09-24T12:44:00.549Z,46.30
2018-09-24T12:46:35.434Z,45.68
2018-09-24T12:49:10.427Z,43.62
2018-09-24T12:51:45.264Z,44.07
2018-09-24T12:54:20.135Z,44.69
2018-09-24T12:56:55.102Z,42.84
2018-09-24T12:59:30.117Z,40.93
2018-09-24T13:02:04.977Z,40.86
2018-09-24T13:04:39.813Z,41.03
2018-09-24T13:07:14.654Z,41.20
2018-09-24T13:09:49.462Z,42.95
2018-09-24T13:12:24.454Z,43.63
2018-09-24T13:14:59.256Z,51.03
2018-09-24T13:17:34.221Z,69.23
2018-09-24T13:20:09.229Z,75.15
2018-09-24T13:22:44.051Z,78.73
2018-09-24T13:25:18.928Z,80.82
2018-09-24T13:27:53.713Z,83.54
2018-09-24T13:30:28.458Z,84.06
2018-09-24T13:33:03.389Z,85.28
2018-09-24T13:35:38.168Z,85.20
2018-09-24T13:38:12.853Z,85.67
2018-09-24T13:40:47.780Z,84.64
2018-09-24T13:43:22.623Z,84.84
2018-09-24T13:45:57.671Z,84.84
2018-09-24T13:48:32.496Z,84.92
2018-09-24T13:51:07.463Z,83.99
2018-09-24T13:53:42.468Z,84.40
2018-09-24T13:56:17.334Z,84.71
2018-09-24T13:58:52.938Z,84.01
2018-09-24T14:01:27.893Z,84.53
2018-09-24T14:04:02.823Z,85.56
2018-09-24T14:06:37.735Z,85.45
2018-09-24T14:09:14.163Z,85.53
2018-09-24T14:11:48.954Z,85.30
2018-09-24T14:14:23.897Z,85.27
2018-09-24T14:16:58.697Z,84.79
2018-09-24T14:19:33.484Z,86.05
2018-09-24T14:22:08.364Z,87.70
2018-09-24T14:24:43.339Z,88.73
2018-09-24T14:27:18.180Z,89.19
2018-09-24T14:29:53.236Z,88.73
2018-09-24T14:32:28.004Z,89.09
2018-09-24T14:35:02.820Z,88.86
2018-09-24T14:37:37.644Z,88.90
2018-09-24T14:40:12.516Z,89.30
2018-09-24T14:42:47.554Z,90.17
2018-09-24T14:45:22.373Z,91.05
2018-09-24T14:47:57.531Z,91.36
2018-09-24T14:50:32.671Z,92.10
2018-09-24T14:53:07.809Z,91.15
2018-09-24T14:55:52.625Z,90.75
2018-09-24T14:58:28.761Z,90.50
2018-09-24T15:01:03.803Z,90.45
2018-09-24T15:03:38.626Z,89.98
2018-09-24T15:06:14.256Z,88.81
2018-09-24T15:08:53.700Z,88.75
2018-09-24T15:11:28.796Z,88.04
2018-09-24T15:14:03.624Z,88.34
2018-09-24T15:16:38.849Z,88.33
2018-09-24T15:19:13.634Z,87.82
2018-09-24T15:21:48.548Z,86.78
2018-09-24T15:24:23.570Z,86.17
2018-09-24T15:26:58.531Z,86.71
2018-09-24T15:29:33.590Z,86.76
2018-09-24T15:32:08.696Z,85.33
2018-09-24T15:34:43.548Z,85.29
2018-09-24T15:37:18.681Z,85.28
2018-09-24T15:39:53.614Z,84.79
2018-09-24T15:42:28.672Z,84.23
2018-09-24T15:45:03.618Z,84.10
2018-09-24T15:47:39.052Z,83.59
2018-09-24T15:50:14.012Z,84.36
2018-09-24T15:52:49.598Z,85.36
2018-09-24T15:55:24.970Z,85.58
2018-09-24T15:58:00.061Z,86.75
2018-09-24T16:00:34.959Z,87.90
2018-09-24T16:03:09.833Z,87.68
2018-09-24T16:05:45.006Z,88.49
2018-09-24T16:08:20.163Z,89.87
2018-09-24T16:10:56.368Z,89.71
2018-09-24T16:13:31.110Z,89.75
2018-09-24T16:16:06.084Z,90.51
2018-09-24T16:18:41.099Z,90.50
2018-09-24T16:21:16.528Z,90.17
2018-09-24T16:23:51.099Z,90.80
2018-09-24T16:26:26.089Z,90.34
2018-09-24T16:29:01.151Z,91.09
2018-09-24T16:31:37.120Z,91.58
2018-09-24T16:34:12.449Z,91.17
2018-09-24T16:36:47.309Z,90.44
2018-09-24T16:39:22.099Z,90.88
2018-09-24T16:41:57.143Z,90.77
2018-09-24T16:44:31.921Z,91.74
2018-09-24T16:47:06.715Z,91.96
2018-09-24T16:49:41.855Z,92.74
2018-09-24T16:52:17.127Z,92.58
2018-09-24T16:54:52.103Z,92.92
2018-09-24T16:57:27.384Z,93.37
2018-09-24T17:00:03.105Z,93.57
2018-09-24T17:02:38.073Z,93.95
2018-09-24T17:05:13.207Z,94.40
2018-09-24T17:07:48.012Z,93.91
2018-09-24T17:10:22.915Z,93.48
2018-09-24T17:12:57.906Z,92.27
2018-09-24T17:15:32.855Z,91.14
2018-09-24T17:18:07.855Z,88.78
2018-09-24T17:20:42.695Z,88.51
2018-09-24T17:23:17.649Z,88.10
2018-09-24T17:25:52.612Z,88.51
2018-09-24T17:28:27.731Z,89.05
2018-09-24T17:31:02.579Z,89.91
2018-09-24T17:33:37.146Z,89.92
2018-09-24T17:36:12.126Z,90.32
2018-09-24T17:38:47.043Z,88.12
2018-09-24T17:41:21.827Z,87.88
2018-09-24T17:43:56.615Z,87.77
2018-09-24T17:46:31.588Z,88.19
2018-09-24T17:49:06.679Z,89.12
2018-09-24T17:51:41.604Z,89.49
2018-09-24T17:54:16.394Z,87.77
2018-09-24T17:56:51.306Z,88.77
2018-09-24T17:59:26.361Z,86.61
2018-09-24T18:02:01.160Z,83.98
2018-09-24T18:04:36.290Z,81.47
2018-09-24T18:07:11.380Z,78.59
2018-09-24T18:09:46.286Z,78.01
2018-09-24T18:12:21.168Z,76.16
2018-09-24T18:14:56.103Z,75.64
2018-09-24T18:17:31.248Z,73.93
2018-09-24T18:20:06.286Z,74.28
2018-09-24T18:22:41.220Z,73.84
2018-09-24T18:25:16.234Z,72.48
2018-09-24T18:27:50.954Z,72.10
2018-09-24T18:30:25.851Z,72.77
2018-09-24T18:33:00.698Z,72.94
2018-09-24T18:35:35.338Z,73.08
2018-09-24T18:38:10.383Z,72.26
2018-09-24T18:40:45.290Z,71.26
2018-09-24T18:43:20.096Z,72.37
2018-09-24T18:45:54.954Z,71.51
2018-09-24T18:48:30.385Z,71.51
2018-09-24T18:51:05.686Z,71.87
2018-09-24T18:53:49.605Z,70.92
2018-09-24T18:56:24.830Z,70.30
2018-09-24T18:58:59.645Z,70.92
2018-09-24T19:01:34.473Z,71.05
2018-09-24T19:04:09.618Z,71.47
2018-09-24T19:06:44.334Z,69.96
2018-09-24T19:09:19.441Z,70.97
2018-09-24T19:11:54.345Z,70.50
2018-09-24T19:14:30.089Z,71.59
2018-09-24T19:17:04.856Z,71.65
2018-09-24T19:19:40.006Z,70.34
2018-09-24T19:22:14.918Z,70.79
2018-09-24T19:24:50.136Z,71.98
2018-09-24T19:27:25.113Z,72.70
2018-09-24T19:30:00.254Z,73.04
2018-09-24T19:32:35.414Z,72.85
2018-09-24T19:35:11.263Z,72.46
2018-09-24T19:37:46.474Z,72.99
2018-09-24T19:40:21.550Z,73.48
2018-09-24T19:42:57.333Z,73.23
2018-09-24T19:45:32.576Z,72.31
2018-09-24T19:48:07.679Z,71.52
2018-09-24T19:50:42.801Z,71.09
2018-09-24T19:56:08.321Z,70.29
2018-09-24T19:58:44.123Z,69.77
2018-09-24T20:01:18.938Z,68.71
2018-09-24T20:03:54.111Z,69.27
2018-09-24T20:06:29.819Z,68.64
2018-09-24T20:09:04.539Z,67.20
2018-09-24T20:11:39.731Z,67.90
2018-09-24T20:14:14.751Z,67.64
2018-09-24T20:16:49.510Z,67.10
2018-09-24T20:19:24.357Z,66.53
2018-09-24T20:21:59.427Z,66.62
2018-09-24T20:24:34.388Z,66.91
2018-09-24T20:27:09.633Z,67.84
2018-09-24T20:29:44.574Z,68.28
2018-09-24T20:32:19.577Z,68.30
2018-09-24T20:34:54.423Z,68.38
2018-09-24T20:37:29.219Z,70.20
2018-09-24T20:40:04.007Z,70.09
2018-09-24T20:42:38.795Z,69.86
2018-09-24T20:45:13.221Z,71.45
2018-09-24T20:47:47.824Z,69.87
2018-09-24T20:50:22.339Z,69.84
2018-09-24T20:52:57.013Z,70.48
2018-09-24T20:55:31.833Z,71.14
2018-09-24T20:58:06.556Z,70.53
2018-09-24T21:00:41.477Z,70.22
2018-09-24T21:03:16.311Z,70.66
2018-09-24T21:05:51.299Z,70.63
2018-09-24T21:08:25.879Z,71.53
2018-09-24T21:11:00.698Z,71.66
2018-09-24T21:13:35.610Z,71.82
2018-09-24T21:16:10.475Z,72.15
2018-09-24T21:18:46.467Z,72.13
2018-09-24T21:21:21.369Z,72.59
2018-09-24T21:23:56.153Z,72.44
2018-09-24T21:26:31.177Z,72.26
2018-09-24T21:29:06.013Z,72.30
2018-09-24T21:31:40.825Z,71.95
2018-09-24T21:34:15.700Z,71.87
2018-09-24T21:36:50.232Z,72.11
2018-09-24T21:39:24.806Z,72.63
2018-09-24T21:41:59.592Z,72.06
2018-09-24T21:44:34.429Z,72.28
2018-09-24T21:47:09.209Z,72.55
2018-09-24T21:49:43.994Z,72.45
2018-09-24T21:52:18.786Z,73.19
2018-09-24T21:54:53.742Z,71.94
2018-09-24T21:57:28.527Z,72.32
2018-09-24T22:00:03.190Z,72.35
2018-09-24T22:02:38.154Z,72.89
2018-09-24T22:05:13.164Z,72.96
2018-09-24T22:07:47.926Z,72.89
2018-09-24T22:10:22.652Z,73.16
2018-09-24T22:12:57.500Z,73.17
2018-09-24T22:15:32.314Z,73.54
2018-09-24T22:18:07.911Z,72.48
2018-09-24T22:20:42.428Z,73.39
2018-09-24T22:23:17.364Z,72.77
2018-09-24T22:25:52.221Z,72.61
2018-09-24T22:28:26.876Z,73.78
2018-09-24T22:31:01.508Z,73.59
2018-09-24T22:33:36.065Z,73.91
2018-09-24T22:36:10.662Z,72.87
2018-09-24T22:38:45.222Z,73.21
2018-09-24T22:41:19.751Z,73.38
2018-09-24T22:43:54.749Z,73.05
2018-09-24T22:46:29.516Z,72.26
2018-09-24T22:49:04.393Z,72.30
2018-09-24T22:51:39.131Z,73.28
2018-09-24T22:54:13.999Z,72.70
2018-09-24T22:56:48.662Z,72.61
2018-09-24T22:59:23.543Z,72.96
2018-09-24T23:01:58.363Z,72.65
2018-09-24T23:04:32.769Z,73.50
2018-09-24T23:07:07.561Z,73.55
2018-09-24T23:09:42.336Z,73.39
2018-09-24T23:12:17.256Z,74.21
2018-09-24T23:14:51.931Z,74.75
2018-09-24T23:17:26.870Z,74.45
2018-09-24T23:20:01.693Z,74.79
2018-09-24T23:22:36.592Z,75.26
2018-09-24T23:25:11.420Z,75.83
2018-09-24T23:27:46.272Z,76.33
2018-09-24T23:30:21.073Z,77.26
2018-09-24T23:32:55.808Z,77.76
2018-09-24T23:35:30.592Z,78.15
2018-09-24T23:38:05.400Z,78.70
2018-09-24T23:40:40.152Z,79.46
2018-09-24T23:43:15.059Z,79.41
2018-09-24T23:45:49.824Z,79.17
2018-09-24T23:48:24.604Z,78.70
2018-09-24T23:50:59.435Z,78.96
2018-09-24T23:53:34.404Z,79.59
2018-09-24T23:56:09.449Z,80.17
2018-09-24T23:58:44.416Z,80.47
